sensor_id;sensor_type;location;lat;lon;timestamp;P1;durP1;ratioP1;P2;durP2;ratioP2
7471;SDS011;3777;48.722;8.110;2023-06-22T00:01:44;8.55;;;6.85;;
7471;SDS011;3777;48.722;8.110;2023-06-22T00:04:11;9.32;;;6.45;;
7471;SDS011;3777;48.722;8.110;2023-06-22T00:06:38;7.60;;;6.30;;
7471;SDS011;3777;48.722;8.110;2023-06-22T00:09:05;9.20;;;7.43;;
7471;SDS011;3777;48.722;8.110;2023-06-22T00:11:34;9.18;;;7.53;;
7471;SDS011;3777;48.722;8.110;2023-06-22T00:14:01;10.98;;;7.60;;
7471;SDS011;3777;48.722;8.110;2023-06-22T00:16:28;9.57;;;7.30;;
7471;SDS011;3777;48.722;8.110;2023-06-22T00:18:55;8.77;;;7.47;;
7471;SDS011;3777;48.722;8.110;2023-06-22T00:21:25;9.85;;;7.90;;
7471;SDS011;3777;48.722;8.110;2023-06-22T00:23:52;8.80;;;6.97;;
7471;SDS011;3777;48.722;8.110;2023-06-22T00:26:19;8.25;;;7.40;;
7471;SDS011;3777;48.722;8.110;2023-06-22T00:28:47;8.45;;;7.35;;
7471;SDS011;3777;48.722;8.110;2023-06-22T00:31:14;7.85;;;6.95;;
7471;SDS011;3777;48.722;8.110;2023-06-22T00:33:41;7.45;;;6.68;;
7471;SDS011;3777;48.722;8.110;2023-06-22T00:36:08;8.52;;;6.97;;
7471;SDS011;3777;48.722;8.110;2023-06-22T00:38:38;7.55;;;6.78;;
7471;SDS011;3777;48.722;8.110;2023-06-22T00:41:05;9.68;;;7.20;;
7471;SDS011;3777;48.722;8.110;2023-06-22T00:43:32;7.93;;;6.30;;
7471;SDS011;3777;48.722;8.110;2023-06-22T00:46:00;7.63;;;6.30;;
7471;SDS011;3777;48.722;8.110;2023-06-22T00:48:28;7.18;;;6.45;;
7471;SDS011;3777;48.722;8.110;2023-06-22T00:50:55;7.03;;;6.32;;
7471;SDS011;3777;48.722;8.110;2023-06-22T00:53:22;7.25;;;6.55;;
7471;SDS011;3777;48.722;8.110;2023-06-22T00:55:49;7.75;;;6.78;;
7471;SDS011;3777;48.722;8.110;2023-06-22T00:58:17;8.73;;;6.85;;
7471;SDS011;3777;48.722;8.110;2023-06-22T01:00:46;7.38;;;6.50;;
7471;SDS011;3777;48.722;8.110;2023-06-22T01:03:15;8.05;;;6.78;;
7471;SDS011;3777;48.722;8.110;2023-06-22T01:05:43;8.82;;;6.78;;
7471;SDS011;3777;48.722;8.110;2023-06-22T01:08:16;7.68;;;6.32;;
7471;SDS011;3777;48.722;8.110;2023-06-22T01:10:50;9.02;;;6.65;;
7471;SDS011;3777;48.722;8.110;2023-06-22T01:13:23;9.18;;;6.55;;
7471;SDS011;3777;48.722;8.110;2023-06-22T01:15:57;7.97;;;6.75;;
7471;SDS011;3777;48.722;8.110;2023-06-22T01:18:31;10.57;;;6.70;;
7471;SDS011;3777;48.722;8.110;2023-06-22T01:21:01;8.32;;;6.55;;
7471;SDS011;3777;48.722;8.110;2023-06-22T01:23:36;7.68;;;6.88;;
7471;SDS011;3777;48.722;8.110;2023-06-22T01:26:16;9.27;;;6.47;;
7471;SDS011;3777;48.722;8.110;2023-06-22T01:28:48;8.25;;;6.38;;
7471;SDS011;3777;48.722;8.110;2023-06-22T01:31:17;8.80;;;6.75;;
7471;SDS011;3777;48.722;8.110;2023-06-22T01:33:48;7.40;;;6.60;;
7471;SDS011;3777;48.722;8.110;2023-06-22T01:36:17;7.55;;;6.50;;
7471;SDS011;3777;48.722;8.110;2023-06-22T01:38:45;7.38;;;6.60;;
7471;SDS011;3777;48.722;8.110;2023-06-22T01:41:13;7.70;;;6.82;;
7471;SDS011;3777;48.722;8.110;2023-06-22T01:43:41;11.15;;;7.13;;
7471;SDS011;3777;48.722;8.110;2023-06-22T01:46:10;8.23;;;6.70;;
7471;SDS011;3777;48.722;8.110;2023-06-22T01:48:38;8.52;;;6.93;;
7471;SDS011;3777;48.722;8.110;2023-06-22T01:51:06;8.82;;;6.63;;
7471;SDS011;3777;48.722;8.110;2023-06-22T01:53:33;7.30;;;6.50;;
7471;SDS011;3777;48.722;8.110;2023-06-22T01:56:00;8.95;;;7.70;;
7471;SDS011;3777;48.722;8.110;2023-06-22T01:58:27;8.20;;;6.70;;
7471;SDS011;3777;48.722;8.110;2023-06-22T02:00:57;7.88;;;7.10;;
7471;SDS011;3777;48.722;8.110;2023-06-22T02:03:31;9.45;;;7.00;;
7471;SDS011;3777;48.722;8.110;2023-06-22T02:06:02;12.00;;;7.45;;
7471;SDS011;3777;48.722;8.110;2023-06-22T02:08:32;9.13;;;7.03;;
7471;SDS011;3777;48.722;8.110;2023-06-22T02:11:04;7.72;;;6.93;;
7471;SDS011;3777;48.722;8.110;2023-06-22T02:13:33;9.32;;;7.00;;
7471;SDS011;3777;48.722;8.110;2023-06-22T02:16:02;9.02;;;6.95;;
7471;SDS011;3777;48.722;8.110;2023-06-22T02:18:31;7.68;;;6.88;;
7471;SDS011;3777;48.722;8.110;2023-06-22T02:21:00;8.38;;;6.65;;
7471;SDS011;3777;48.722;8.110;2023-06-22T02:23:27;8.88;;;6.90;;
7471;SDS011;3777;48.722;8.110;2023-06-22T02:25:54;8.05;;;6.80;;
7471;SDS011;3777;48.722;8.110;2023-06-22T02:28:21;7.60;;;6.90;;
7471;SDS011;3777;48.722;8.110;2023-06-22T02:30:48;7.93;;;7.13;;
7471;SDS011;3777;48.722;8.110;2023-06-22T02:33:15;7.95;;;7.15;;
7471;SDS011;3777;48.722;8.110;2023-06-22T02:35:43;9.23;;;7.45;;
7471;SDS011;3777;48.722;8.110;2023-06-22T02:38:14;8.20;;;7.40;;
7471;SDS011;3777;48.722;8.110;2023-06-22T02:40:42;8.15;;;7.25;;
7471;SDS011;3777;48.722;8.110;2023-06-22T02:43:09;10.52;;;7.55;;
7471;SDS011;3777;48.722;8.110;2023-06-22T02:45:36;9.02;;;7.25;;
7471;SDS011;3777;48.722;8.110;2023-06-22T02:48:04;9.07;;;6.88;;
7471;SDS011;3777;48.722;8.110;2023-06-22T02:50:31;8.63;;;7.32;;
7471;SDS011;3777;48.722;8.110;2023-06-22T02:52:59;8.80;;;7.25;;
7471;SDS011;3777;48.722;8.110;2023-06-22T02:55:26;7.97;;;7.10;;
7471;SDS011;3777;48.722;8.110;2023-06-22T02:57:53;8.48;;;7.50;;
7471;SDS011;3777;48.722;8.110;2023-06-22T03:00:20;9.70;;;6.90;;
7471;SDS011;3777;48.722;8.110;2023-06-22T03:02:47;9.27;;;8.13;;
7471;SDS011;3777;48.722;8.110;2023-06-22T03:05:15;9.32;;;7.53;;
7471;SDS011;3777;48.722;8.110;2023-06-22T03:07:43;8.75;;;7.85;;
7471;SDS011;3777;48.722;8.110;2023-06-22T03:10:12;8.40;;;7.60;;
7471;SDS011;3777;48.722;8.110;2023-06-22T03:12:40;8.65;;;7.65;;
7471;SDS011;3777;48.722;8.110;2023-06-22T03:15:09;11.27;;;8.00;;
7471;SDS011;3777;48.722;8.110;2023-06-22T03:17:37;10.32;;;7.47;;
7471;SDS011;3777;48.722;8.110;2023-06-22T03:20:05;9.32;;;7.28;;
7471;SDS011;3777;48.722;8.110;2023-06-22T03:22:34;9.35;;;8.27;;
7471;SDS011;3777;48.722;8.110;2023-06-22T03:25:01;10.32;;;8.00;;
7471;SDS011;3777;48.722;8.110;2023-06-22T03:27:29;9.13;;;8.23;;
7471;SDS011;3777;48.722;8.110;2023-06-22T03:29:56;12.45;;;7.97;;
7471;SDS011;3777;48.722;8.110;2023-06-22T03:32:23;10.20;;;8.60;;
7471;SDS011;3777;48.722;8.110;2023-06-22T03:34:53;9.23;;;8.15;;
7471;SDS011;3777;48.722;8.110;2023-06-22T03:37:23;8.88;;;7.97;;
7471;SDS011;3777;48.722;8.110;2023-06-22T03:39:50;9.77;;;8.20;;
7471;SDS011;3777;48.722;8.110;2023-06-22T03:42:17;11.13;;;8.50;;
7471;SDS011;3777;48.722;8.110;2023-06-22T03:44:46;11.10;;;8.80;;
7471;SDS011;3777;48.722;8.110;2023-06-22T03:47:13;10.25;;;8.30;;
7471;SDS011;3777;48.722;8.110;2023-06-22T03:49:40;9.70;;;8.07;;
7471;SDS011;3777;48.722;8.110;2023-06-22T03:52:07;11.35;;;8.85;;
7471;SDS011;3777;48.722;8.110;2023-06-22T03:54:34;9.90;;;8.32;;
7471;SDS011;3777;48.722;8.110;2023-06-22T03:57:01;10.15;;;8.80;;
7471;SDS011;3777;48.722;8.110;2023-06-22T03:59:28;11.48;;;8.05;;
7471;SDS011;3777;48.722;8.110;2023-06-22T04:01:56;9.07;;;8.18;;
7471;SDS011;3777;48.722;8.110;2023-06-22T04:04:23;12.52;;;8.48;;
7471;SDS011;3777;48.722;8.110;2023-06-22T04:06:50;9.05;;;8.15;;
7471;SDS011;3777;48.722;8.110;2023-06-22T04:09:17;10.02;;;7.72;;
7471;SDS011;3777;48.722;8.110;2023-06-22T04:11:44;9.80;;;8.07;;
7471;SDS011;3777;48.722;8.110;2023-06-22T04:14:11;11.95;;;9.10;;
7471;SDS011;3777;48.722;8.110;2023-06-22T04:16:38;9.10;;;7.78;;
7471;SDS011;3777;48.722;8.110;2023-06-22T04:19:06;9.52;;;7.85;;
7471;SDS011;3777;48.722;8.110;2023-06-22T04:21:39;9.98;;;8.18;;
7471;SDS011;3777;48.722;8.110;2023-06-22T04:24:06;10.68;;;8.20;;
7471;SDS011;3777;48.722;8.110;2023-06-22T04:26:33;9.05;;;8.05;;
7471;SDS011;3777;48.722;8.110;2023-06-22T04:29:02;10.30;;;8.13;;
7471;SDS011;3777;48.722;8.110;2023-06-22T04:31:30;13.30;;;7.70;;
7471;SDS011;3777;48.722;8.110;2023-06-22T04:34:01;9.23;;;8.07;;
7471;SDS011;3777;48.722;8.110;2023-06-22T04:36:33;13.45;;;8.02;;
7471;SDS011;3777;48.722;8.110;2023-06-22T04:39:04;9.13;;;7.85;;
7471;SDS011;3777;48.722;8.110;2023-06-22T04:41:35;8.77;;;7.88;;
7471;SDS011;3777;48.722;8.110;2023-06-22T04:44:10;8.35;;;7.55;;
7471;SDS011;3777;48.722;8.110;2023-06-22T04:46:38;10.40;;;7.50;;
7471;SDS011;3777;48.722;8.110;2023-06-22T04:49:06;8.85;;;7.47;;
7471;SDS011;3777;48.722;8.110;2023-06-22T04:51:37;9.15;;;7.55;;
7471;SDS011;3777;48.722;8.110;2023-06-22T04:54:05;8.95;;;7.38;;
7471;SDS011;3777;48.722;8.110;2023-06-22T04:56:32;10.32;;;7.55;;
7471;SDS011;3777;48.722;8.110;2023-06-22T04:58:59;8.82;;;7.03;;
7471;SDS011;3777;48.722;8.110;2023-06-22T05:01:28;8.15;;;7.35;;
7471;SDS011;3777;48.722;8.110;2023-06-22T05:03:57;8.05;;;7.30;;
7471;SDS011;3777;48.722;8.110;2023-06-22T05:06:26;10.07;;;7.55;;
7471;SDS011;3777;48.722;8.110;2023-06-22T05:08:55;12.02;;;7.32;;
7471;SDS011;3777;48.722;8.110;2023-06-22T05:11:23;8.80;;;6.82;;
7471;SDS011;3777;48.722;8.110;2023-06-22T05:13:51;7.95;;;6.88;;
7471;SDS011;3777;48.722;8.110;2023-06-22T05:16:18;9.40;;;7.00;;
7471;SDS011;3777;48.722;8.110;2023-06-22T05:18:48;8.65;;;7.05;;
7471;SDS011;3777;48.722;8.110;2023-06-22T05:21:16;9.57;;;7.25;;
7471;SDS011;3777;48.722;8.110;2023-06-22T05:23:44;9.55;;;6.80;;
7471;SDS011;3777;48.722;8.110;2023-06-22T05:26:12;9.77;;;6.68;;
7471;SDS011;3777;48.722;8.110;2023-06-22T05:28:39;9.27;;;6.88;;
7471;SDS011;3777;48.722;8.110;2023-06-22T05:31:06;9.95;;;7.20;;
7471;SDS011;3777;48.722;8.110;2023-06-22T05:33:33;7.35;;;6.57;;
7471;SDS011;3777;48.722;8.110;2023-06-22T05:36:00;8.85;;;6.78;;
7471;SDS011;3777;48.722;8.110;2023-06-22T05:38:27;7.57;;;6.68;;
7471;SDS011;3777;48.722;8.110;2023-06-22T05:40:54;10.57;;;6.70;;
7471;SDS011;3777;48.722;8.110;2023-06-22T05:43:22;8.35;;;6.60;;
7471;SDS011;3777;48.722;8.110;2023-06-22T05:45:49;7.63;;;6.57;;
7471;SDS011;3777;48.722;8.110;2023-06-22T05:48:16;9.32;;;6.50;;
7471;SDS011;3777;48.722;8.110;2023-06-22T05:50:43;7.45;;;6.38;;
7471;SDS011;3777;48.722;8.110;2023-06-22T05:53:10;6.57;;;5.93;;
7471;SDS011;3777;48.722;8.110;2023-06-22T05:55:37;9.65;;;6.13;;
7471;SDS011;3777;48.722;8.110;2023-06-22T05:58:04;8.50;;;6.55;;
7471;SDS011;3777;48.722;8.110;2023-06-22T06:00:33;7.03;;;6.07;;
7471;SDS011;3777;48.722;8.110;2023-06-22T06:03:00;9.18;;;6.85;;
7471;SDS011;3777;48.722;8.110;2023-06-22T06:05:28;9.07;;;6.50;;
7471;SDS011;3777;48.722;8.110;2023-06-22T06:07:55;7.32;;;5.78;;
7471;SDS011;3777;48.722;8.110;2023-06-22T06:10:22;8.15;;;6.30;;
7471;SDS011;3777;48.722;8.110;2023-06-22T06:12:50;9.65;;;7.00;;
7471;SDS011;3777;48.722;8.110;2023-06-22T06:15:17;8.60;;;5.90;;
7471;SDS011;3777;48.722;8.110;2023-06-22T06:17:48;7.75;;;6.28;;
7471;SDS011;3777;48.722;8.110;2023-06-22T06:20:17;7.13;;;6.10;;
7471;SDS011;3777;48.722;8.110;2023-06-22T06:22:46;10.27;;;6.60;;
7471;SDS011;3777;48.722;8.110;2023-06-22T06:25:13;6.80;;;6.10;;
7471;SDS011;3777;48.722;8.110;2023-06-22T06:27:42;9.15;;;5.55;;
7471;SDS011;3777;48.722;8.110;2023-06-22T06:30:09;7.03;;;5.97;;
7471;SDS011;3777;48.722;8.110;2023-06-22T06:32:37;6.25;;;5.65;;
7471;SDS011;3777;48.722;8.110;2023-06-22T06:35:07;7.85;;;5.45;;
7471;SDS011;3777;48.722;8.110;2023-06-22T06:37:36;8.30;;;5.80;;
7471;SDS011;3777;48.722;8.110;2023-06-22T06:40:04;8.85;;;5.78;;
7471;SDS011;3777;48.722;8.110;2023-06-22T06:42:33;9.82;;;6.15;;
7471;SDS011;3777;48.722;8.110;2023-06-22T06:45:02;6.55;;;5.95;;
7471;SDS011;3777;48.722;8.110;2023-06-22T06:47:30;6.75;;;5.95;;
7471;SDS011;3777;48.722;8.110;2023-06-22T06:49:57;6.68;;;5.40;;
7471;SDS011;3777;48.722;8.110;2023-06-22T06:52:26;7.40;;;5.20;;
7471;SDS011;3777;48.722;8.110;2023-06-22T06:54:53;5.63;;;4.82;;
7471;SDS011;3777;48.722;8.110;2023-06-22T06:57:20;6.70;;;5.43;;
7471;SDS011;3777;48.722;8.110;2023-06-22T06:59:47;7.57;;;5.75;;
7471;SDS011;3777;48.722;8.110;2023-06-22T07:02:14;9.27;;;5.55;;
7471;SDS011;3777;48.722;8.110;2023-06-22T07:04:42;6.50;;;5.10;;
7471;SDS011;3777;48.722;8.110;2023-06-22T07:07:09;8.77;;;5.72;;
7471;SDS011;3777;48.722;8.110;2023-06-22T07:09:37;6.45;;;5.32;;
7471;SDS011;3777;48.722;8.110;2023-06-22T07:12:04;6.30;;;5.60;;
7471;SDS011;3777;48.722;8.110;2023-06-22T07:14:32;7.30;;;5.57;;
7471;SDS011;3777;48.722;8.110;2023-06-22T07:16:59;7.57;;;5.65;;
7471;SDS011;3777;48.722;8.110;2023-06-22T07:19:26;8.98;;;5.90;;
7471;SDS011;3777;48.722;8.110;2023-06-22T07:21:54;8.40;;;6.00;;
7471;SDS011;3777;48.722;8.110;2023-06-22T07:24:21;9.30;;;6.05;;
7471;SDS011;3777;48.722;8.110;2023-06-22T07:26:50;9.50;;;5.97;;
7471;SDS011;3777;48.722;8.110;2023-06-22T07:29:17;9.77;;;6.57;;
7471;SDS011;3777;48.722;8.110;2023-06-22T07:31:46;8.43;;;7.50;;
7471;SDS011;3777;48.722;8.110;2023-06-22T07:34:14;8.65;;;6.20;;
7471;SDS011;3777;48.722;8.110;2023-06-22T07:36:41;7.60;;;5.85;;
7471;SDS011;3777;48.722;8.110;2023-06-22T07:39:08;9.60;;;7.00;;
7471;SDS011;3777;48.722;8.110;2023-06-22T07:41:36;11.25;;;7.05;;
7471;SDS011;3777;48.722;8.110;2023-06-22T07:44:06;7.55;;;6.75;;
7471;SDS011;3777;48.722;8.110;2023-06-22T07:46:33;7.30;;;6.45;;
7471;SDS011;3777;48.722;8.110;2023-06-22T07:49:00;9.90;;;6.80;;
7471;SDS011;3777;48.722;8.110;2023-06-22T07:51:27;10.30;;;7.40;;
7471;SDS011;3777;48.722;8.110;2023-06-22T07:53:54;8.90;;;7.53;;
7471;SDS011;3777;48.722;8.110;2023-06-22T07:56:21;9.98;;;7.10;;
7471;SDS011;3777;48.722;8.110;2023-06-22T07:58:48;9.68;;;6.97;;
7471;SDS011;3777;48.722;8.110;2023-06-22T08:01:17;10.25;;;7.68;;
7471;SDS011;3777;48.722;8.110;2023-06-22T08:03:46;11.38;;;7.95;;
7471;SDS011;3777;48.722;8.110;2023-06-22T08:06:16;10.93;;;8.85;;
7471;SDS011;3777;48.722;8.110;2023-06-22T08:08:43;10.32;;;7.72;;
7471;SDS011;3777;48.722;8.110;2023-06-22T08:11:13;9.80;;;8.35;;
7471;SDS011;3777;48.722;8.110;2023-06-22T08:13:40;10.85;;;8.18;;
7471;SDS011;3777;48.722;8.110;2023-06-22T08:16:07;8.82;;;7.43;;
7471;SDS011;3777;48.722;8.110;2023-06-22T08:18:35;14.07;;;8.77;;
7471;SDS011;3777;48.722;8.110;2023-06-22T08:21:02;13.13;;;7.78;;
7471;SDS011;3777;48.722;8.110;2023-06-22T08:23:29;9.98;;;6.55;;
7471;SDS011;3777;48.722;8.110;2023-06-22T08:25:56;10.18;;;8.43;;
7471;SDS011;3777;48.722;8.110;2023-06-22T08:28:23;9.25;;;8.18;;
7471;SDS011;3777;48.722;8.110;2023-06-22T08:30:50;11.55;;;7.57;;
7471;SDS011;3777;48.722;8.110;2023-06-22T08:33:17;12.27;;;7.68;;
7471;SDS011;3777;48.722;8.110;2023-06-22T08:35:45;8.73;;;7.15;;
7471;SDS011;3777;48.722;8.110;2023-06-22T08:38:12;7.25;;;6.38;;
7471;SDS011;3777;48.722;8.110;2023-06-22T08:40:40;9.18;;;6.85;;
7471;SDS011;3777;48.722;8.110;2023-06-22T08:43:07;9.00;;;6.35;;
7471;SDS011;3777;48.722;8.110;2023-06-22T08:45:34;10.18;;;6.60;;
7471;SDS011;3777;48.722;8.110;2023-06-22T08:48:01;9.52;;;6.95;;
7471;SDS011;3777;48.722;8.110;2023-06-22T08:50:31;10.23;;;6.50;;
7471;SDS011;3777;48.722;8.110;2023-06-22T08:52:59;10.43;;;6.60;;
7471;SDS011;3777;48.722;8.110;2023-06-22T08:55:26;10.30;;;6.18;;
7471;SDS011;3777;48.722;8.110;2023-06-22T08:57:53;8.48;;;6.22;;
7471;SDS011;3777;48.722;8.110;2023-06-22T09:00:20;10.75;;;6.22;;
7471;SDS011;3777;48.722;8.110;2023-06-22T09:02:47;9.15;;;5.80;;
7471;SDS011;3777;48.722;8.110;2023-06-22T09:05:15;8.50;;;5.43;;
7471;SDS011;3777;48.722;8.110;2023-06-22T09:07:42;9.20;;;6.10;;
7471;SDS011;3777;48.722;8.110;2023-06-22T09:10:10;8.85;;;6.85;;
7471;SDS011;3777;48.722;8.110;2023-06-22T09:12:38;7.47;;;5.90;;
7471;SDS011;3777;48.722;8.110;2023-06-22T09:15:06;9.27;;;6.80;;
7471;SDS011;3777;48.722;8.110;2023-06-22T09:17:33;8.65;;;6.55;;
7471;SDS011;3777;48.722;8.110;2023-06-22T09:20:01;8.52;;;6.25;;
7471;SDS011;3777;48.722;8.110;2023-06-22T09:22:30;7.05;;;5.78;;
7471;SDS011;3777;48.722;8.110;2023-06-22T09:24:58;10.00;;;6.80;;
7471;SDS011;3777;48.722;8.110;2023-06-22T09:27:27;8.07;;;6.80;;
7471;SDS011;3777;48.722;8.110;2023-06-22T09:29:54;10.68;;;6.95;;
7471;SDS011;3777;48.722;8.110;2023-06-22T09:32:23;8.88;;;6.63;;
7471;SDS011;3777;48.722;8.110;2023-06-22T09:34:50;8.32;;;6.35;;
7471;SDS011;3777;48.722;8.110;2023-06-22T09:37:18;8.10;;;6.55;;
7471;SDS011;3777;48.722;8.110;2023-06-22T09:39:45;8.90;;;7.22;;
7471;SDS011;3777;48.722;8.110;2023-06-22T09:42:12;9.60;;;6.93;;
7471;SDS011;3777;48.722;8.110;2023-06-22T09:44:40;8.65;;;6.82;;
7471;SDS011;3777;48.722;8.110;2023-06-22T09:47:07;11.27;;;6.95;;
7471;SDS011;3777;48.722;8.110;2023-06-22T09:49:34;10.82;;;7.43;;
7471;SDS011;3777;48.722;8.110;2023-06-22T09:52:01;9.93;;;7.10;;
7471;SDS011;3777;48.722;8.110;2023-06-22T09:54:28;10.52;;;6.72;;
7471;SDS011;3777;48.722;8.110;2023-06-22T09:56:55;12.18;;;6.38;;
7471;SDS011;3777;48.722;8.110;2023-06-22T09:59:22;8.43;;;6.28;;
7471;SDS011;3777;48.722;8.110;2023-06-22T10:01:50;11.43;;;5.90;;
7471;SDS011;3777;48.722;8.110;2023-06-22T10:04:17;8.57;;;6.35;;
7471;SDS011;3777;48.722;8.110;2023-06-22T10:06:44;7.88;;;6.50;;
7471;SDS011;3777;48.722;8.110;2023-06-22T10:09:11;10.65;;;6.22;;
7471;SDS011;3777;48.722;8.110;2023-06-22T10:11:38;8.98;;;6.15;;
7471;SDS011;3777;48.722;8.110;2023-06-22T10:14:05;9.48;;;5.90;;
7471;SDS011;3777;48.722;8.110;2023-06-22T10:16:32;8.52;;;6.35;;
7471;SDS011;3777;48.722;8.110;2023-06-22T10:19:02;7.38;;;6.05;;
7471;SDS011;3777;48.722;8.110;2023-06-22T10:21:29;9.85;;;6.35;;
7471;SDS011;3777;48.722;8.110;2023-06-22T10:23:56;8.65;;;6.20;;
7471;SDS011;3777;48.722;8.110;2023-06-22T10:26:24;9.52;;;6.32;;
7471;SDS011;3777;48.722;8.110;2023-06-22T10:28:53;7.55;;;5.70;;
7471;SDS011;3777;48.722;8.110;2023-06-22T10:31:20;8.02;;;6.03;;
7471;SDS011;3777;48.722;8.110;2023-06-22T10:33:50;7.20;;;6.25;;
7471;SDS011;3777;48.722;8.110;2023-06-22T10:36:20;8.43;;;6.05;;
7471;SDS011;3777;48.722;8.110;2023-06-22T10:38:47;10.10;;;7.20;;
7471;SDS011;3777;48.722;8.110;2023-06-22T10:41:14;10.48;;;6.72;;
7471;SDS011;3777;48.722;8.110;2023-06-22T10:43:42;8.48;;;6.75;;
7471;SDS011;3777;48.722;8.110;2023-06-22T10:46:09;9.20;;;6.20;;
7471;SDS011;3777;48.722;8.110;2023-06-22T10:48:36;13.90;;;6.63;;
7471;SDS011;3777;48.722;8.110;2023-06-22T10:51:03;9.02;;;6.03;;
7471;SDS011;3777;48.722;8.110;2023-06-22T10:53:31;7.68;;;5.63;;
7471;SDS011;3777;48.722;8.110;2023-06-22T10:55:58;8.50;;;5.97;;
7471;SDS011;3777;48.722;8.110;2023-06-22T10:58:25;8.63;;;6.20;;
7471;SDS011;3777;48.722;8.110;2023-06-22T11:00:52;9.88;;;6.20;;
7471;SDS011;3777;48.722;8.110;2023-06-22T11:03:19;7.13;;;5.80;;
7471;SDS011;3777;48.722;8.110;2023-06-22T11:05:47;7.28;;;5.95;;
7471;SDS011;3777;48.722;8.110;2023-06-22T11:08:14;9.40;;;6.00;;
7471;SDS011;3777;48.722;8.110;2023-06-22T11:10:43;8.13;;;6.10;;
7471;SDS011;3777;48.722;8.110;2023-06-22T11:13:10;9.88;;;6.10;;
7471;SDS011;3777;48.722;8.110;2023-06-22T11:15:38;9.25;;;6.45;;
7471;SDS011;3777;48.722;8.110;2023-06-22T11:18:05;8.32;;;6.43;;
7471;SDS011;3777;48.722;8.110;2023-06-22T11:20:32;8.48;;;6.15;;
7471;SDS011;3777;48.722;8.110;2023-06-22T11:23:03;9.45;;;5.93;;
7471;SDS011;3777;48.722;8.110;2023-06-22T11:25:31;9.40;;;6.22;;
7471;SDS011;3777;48.722;8.110;2023-06-22T11:28:01;7.53;;;5.90;;
7471;SDS011;3777;48.722;8.110;2023-06-22T11:30:28;8.30;;;6.53;;
7471;SDS011;3777;48.722;8.110;2023-06-22T11:32:56;8.85;;;6.45;;
7471;SDS011;3777;48.722;8.110;2023-06-22T11:35:25;10.13;;;5.90;;
7471;SDS011;3777;48.722;8.110;2023-06-22T11:37:52;7.88;;;6.60;;
7471;SDS011;3777;48.722;8.110;2023-06-22T11:40:19;9.23;;;6.10;;
7471;SDS011;3777;48.722;8.110;2023-06-22T11:42:46;8.13;;;6.60;;
7471;SDS011;3777;48.722;8.110;2023-06-22T11:45:14;7.95;;;5.78;;
7471;SDS011;3777;48.722;8.110;2023-06-22T11:47:42;10.77;;;6.40;;
7471;SDS011;3777;48.722;8.110;2023-06-22T11:50:09;10.77;;;6.97;;
7471;SDS011;3777;48.722;8.110;2023-06-22T11:52:36;8.60;;;6.65;;
7471;SDS011;3777;48.722;8.110;2023-06-22T11:55:04;13.23;;;7.35;;
7471;SDS011;3777;48.722;8.110;2023-06-22T11:57:32;9.40;;;6.57;;
7471;SDS011;3777;48.722;8.110;2023-06-22T12:00:00;10.65;;;6.47;;
7471;SDS011;3777;48.722;8.110;2023-06-22T12:02:32;11.13;;;6.78;;
7471;SDS011;3777;48.722;8.110;2023-06-22T12:04:59;11.50;;;6.85;;
7471;SDS011;3777;48.722;8.110;2023-06-22T12:07:29;9.43;;;6.78;;
7471;SDS011;3777;48.722;8.110;2023-06-22T12:09:56;8.30;;;6.45;;
7471;SDS011;3777;48.722;8.110;2023-06-22T12:12:23;8.80;;;6.70;;
7471;SDS011;3777;48.722;8.110;2023-06-22T12:14:50;8.52;;;6.75;;
7471;SDS011;3777;48.722;8.110;2023-06-22T12:17:17;10.30;;;7.25;;
7471;SDS011;3777;48.722;8.110;2023-06-22T12:19:45;9.35;;;6.40;;
7471;SDS011;3777;48.722;8.110;2023-06-22T12:22:12;8.13;;;6.97;;
7471;SDS011;3777;48.722;8.110;2023-06-22T12:24:39;9.93;;;6.90;;
7471;SDS011;3777;48.722;8.110;2023-06-22T12:27:06;10.38;;;6.55;;
7471;SDS011;3777;48.722;8.110;2023-06-22T12:29:33;11.23;;;7.43;;
7471;SDS011;3777;48.722;8.110;2023-06-22T12:32:00;12.32;;;7.63;;
7471;SDS011;3777;48.722;8.110;2023-06-22T12:34:27;11.52;;;7.85;;
7471;SDS011;3777;48.722;8.110;2023-06-22T12:36:56;12.15;;;7.53;;
7471;SDS011;3777;48.722;8.110;2023-06-22T12:39:22;11.82;;;8.00;;
7471;SDS011;3777;48.722;8.110;2023-06-22T12:41:49;9.00;;;6.60;;
7471;SDS011;3777;48.722;8.110;2023-06-22T12:44:16;10.20;;;7.35;;
7471;SDS011;3777;48.722;8.110;2023-06-22T12:46:43;12.00;;;7.28;;
7471;SDS011;3777;48.722;8.110;2023-06-22T12:49:10;8.98;;;6.80;;
7471;SDS011;3777;48.722;8.110;2023-06-22T12:51:39;9.27;;;6.82;;
7471;SDS011;3777;48.722;8.110;2023-06-22T12:54:08;10.63;;;7.53;;
7471;SDS011;3777;48.722;8.110;2023-06-22T12:56:35;17.08;;;8.05;;
7471;SDS011;3777;48.722;8.110;2023-06-22T12:59:03;11.10;;;7.00;;
7471;SDS011;3777;48.722;8.110;2023-06-22T13:01:30;11.27;;;6.90;;
7471;SDS011;3777;48.722;8.110;2023-06-22T13:03:57;11.30;;;6.72;;
7471;SDS011;3777;48.722;8.110;2023-06-22T13:06:24;10.88;;;7.35;;
7471;SDS011;3777;48.722;8.110;2023-06-22T13:08:51;9.88;;;7.10;;
7471;SDS011;3777;48.722;8.110;2023-06-22T13:11:20;10.00;;;6.78;;
7471;SDS011;3777;48.722;8.110;2023-06-22T13:13:47;11.32;;;7.70;;
7471;SDS011;3777;48.722;8.110;2023-06-22T13:16:14;10.63;;;6.78;;
7471;SDS011;3777;48.722;8.110;2023-06-22T13:18:41;10.35;;;7.80;;
7471;SDS011;3777;48.722;8.110;2023-06-22T13:21:08;13.65;;;8.73;;
7471;SDS011;3777;48.722;8.110;2023-06-22T13:23:35;9.45;;;7.22;;
7471;SDS011;3777;48.722;8.110;2023-06-22T13:26:02;12.20;;;8.18;;
7471;SDS011;3777;48.722;8.110;2023-06-22T13:28:30;9.82;;;7.57;;
7471;SDS011;3777;48.722;8.110;2023-06-22T13:30:57;13.75;;;7.93;;
7471;SDS011;3777;48.722;8.110;2023-06-22T13:33:24;13.75;;;8.40;;
7471;SDS011;3777;48.722;8.110;2023-06-22T13:35:51;14.50;;;9.13;;
7471;SDS011;3777;48.722;8.110;2023-06-22T13:38:18;13.38;;;8.40;;
7471;SDS011;3777;48.722;8.110;2023-06-22T13:40:45;14.55;;;8.23;;
7471;SDS011;3777;48.722;8.110;2023-06-22T13:43:13;12.38;;;7.57;;
7471;SDS011;3777;48.722;8.110;2023-06-22T13:45:42;12.68;;;7.47;;
7471;SDS011;3777;48.722;8.110;2023-06-22T13:48:12;13.10;;;7.85;;
7471;SDS011;3777;48.722;8.110;2023-06-22T13:50:39;11.52;;;7.40;;
7471;SDS011;3777;48.722;8.110;2023-06-22T13:53:06;10.48;;;7.18;;
7471;SDS011;3777;48.722;8.110;2023-06-22T13:55:33;12.60;;;7.70;;
7471;SDS011;3777;48.722;8.110;2023-06-22T13:58:00;13.68;;;7.65;;
7471;SDS011;3777;48.722;8.110;2023-06-22T14:00:27;13.13;;;6.72;;
7471;SDS011;3777;48.722;8.110;2023-06-22T14:02:55;10.38;;;6.95;;
7471;SDS011;3777;48.722;8.110;2023-06-22T14:05:22;14.88;;;7.28;;
7471;SDS011;3777;48.722;8.110;2023-06-22T14:07:49;12.82;;;7.30;;
7471;SDS011;3777;48.722;8.110;2023-06-22T14:10:16;12.70;;;7.10;;
7471;SDS011;3777;48.722;8.110;2023-06-22T14:12:43;13.48;;;6.78;;
7471;SDS011;3777;48.722;8.110;2023-06-22T14:15:10;11.88;;;6.47;;
7471;SDS011;3777;48.722;8.110;2023-06-22T14:17:37;10.30;;;6.45;;
7471;SDS011;3777;48.722;8.110;2023-06-22T14:20:06;10.55;;;6.40;;
7471;SDS011;3777;48.722;8.110;2023-06-22T14:22:34;13.45;;;6.90;;
7471;SDS011;3777;48.722;8.110;2023-06-22T14:25:01;10.95;;;6.90;;
7471;SDS011;3777;48.722;8.110;2023-06-22T14:27:28;10.27;;;6.90;;
7471;SDS011;3777;48.722;8.110;2023-06-22T14:29:55;11.02;;;6.80;;
7471;SDS011;3777;48.722;8.110;2023-06-22T14:32:22;11.77;;;6.57;;
7471;SDS011;3777;48.722;8.110;2023-06-22T14:34:50;11.57;;;6.78;;
7471;SDS011;3777;48.722;8.110;2023-06-22T14:37:18;10.07;;;6.82;;
7471;SDS011;3777;48.722;8.110;2023-06-22T14:39:45;12.07;;;6.97;;
7471;SDS011;3777;48.722;8.110;2023-06-22T14:42:12;11.50;;;7.20;;
7471;SDS011;3777;48.722;8.110;2023-06-22T14:44:39;11.50;;;7.10;;
7471;SDS011;3777;48.722;8.110;2023-06-22T14:47:06;15.80;;;7.35;;
7471;SDS011;3777;48.722;8.110;2023-06-22T14:49:33;14.95;;;7.00;;
7471;SDS011;3777;48.722;8.110;2023-06-22T14:52:01;10.07;;;6.63;;
7471;SDS011;3777;48.722;8.110;2023-06-22T14:54:30;10.95;;;7.10;;
7471;SDS011;3777;48.722;8.110;2023-06-22T14:56:57;13.10;;;7.65;;
7471;SDS011;3777;48.722;8.110;2023-06-22T14:59:24;12.25;;;7.00;;
7471;SDS011;3777;48.722;8.110;2023-06-22T15:01:51;11.27;;;7.00;;
7471;SDS011;3777;48.722;8.110;2023-06-22T15:04:18;9.52;;;6.50;;
7471;SDS011;3777;48.722;8.110;2023-06-22T15:06:44;14.52;;;7.07;;
7471;SDS011;3777;48.722;8.110;2023-06-22T15:09:11;11.15;;;6.88;;
7471;SDS011;3777;48.722;8.110;2023-06-22T15:11:40;9.50;;;7.18;;
7471;SDS011;3777;48.722;8.110;2023-06-22T15:14:07;13.13;;;7.65;;